Time;durP1;ratioP1;P1;durP2;ratioP2;P2;SDS_P1;SDS_P2;PMS_P1;PMS_P2;Temp;Humidity;BMP_temperature;BMP_pressure;BME280_temperature;BME280_humidity;BME280_pressure;Samples;Min_cycle;Max_cycle;Signal;HPM_P1;HPM_P2
2022/04/12 00:01:04;;;;;;;;;;;12.50;40.40;;;;;;4971295;28;19925;-87
2022/04/12 00:03:30;;;;;;;;;;;12.50;40.50;;;;;;4952666;28;19914;-87
2022/04/12 00:05:55;;;;;;;;;;;12.40;40.60;;;;;;4962361;28;19925;-87
2022/04/12 00:08:21;;;;;;;;;;;12.40;40.70;;;;;;4948999;28;20398;-86
2022/04/12 00:10:47;;;;;;;;;;;12.40;40.90;;;;;;4959239;28;19926;-87
2022/04/12 00:13:12;;;;;;;;;;;12.40;40.90;;;;;;4949707;28;19914;-87
2022/04/12 00:15:38;;;;;;;;;;;12.40;41.00;;;;;;4959568;28;19922;-87
2022/04/12 00:20:49;;;;;;;;;;;12.40;40.80;;;;;;4958209;28;19926;-86
2022/04/12 00:23:15;;;;;;;;;;;12.30;40.90;;;;;;4945104;28;19914;-87
2022/04/12 00:25:44;;;;;;;;;;;12.30;40.90;;;;;;4969754;28;20009;-87
2022/04/12 00:28:10;;;;;;;;;;;12.30;40.90;;;;;;4951630;28;19923;-88
2022/04/12 00:30:36;;;;;;;;;;;12.20;40.90;;;;;;4960384;28;19925;-88
2022/04/12 00:33:01;;;;;;;;;;;12.20;41.00;;;;;;4976194;28;19966;-87
2022/04/12 00:35:27;;;;;;;;;;;12.20;41.10;;;;;;4962156;28;19925;-88
2022/04/12 00:37:53;;;;;;;;;;;12.20;41.10;;;;;;4965844;28;19914;-88
2022/04/12 00:40:19;;;;;;;;;;;12.20;41.00;;;;;;4959491;28;19928;-87
2022/04/12 00:42:45;;;;;;;;;;;12.10;41.10;;;;;;4954578;28;19918;-88
2022/04/12 00:45:10;;;;;;;;;;;12.10;41.10;;;;;;4961147;28;20312;-88
2022/04/12 00:47:36;;;;;;;;;;;12.00;41.10;;;;;;4942487;29;19961;-88
2022/04/12 00:50:02;;;;;;;;;;;12.00;41.10;;;;;;4966229;28;20290;-88
2022/04/12 00:52:28;;;;;;;;;;;12.00;41.10;;;;;;4960585;28;19968;-88
2022/04/12 00:54:54;;;;;;;;;;;12.00;41.10;;;;;;4959843;28;19922;-88
2022/04/12 00:57:19;;;;;;;;;;;12.00;41.20;;;;;;4959321;28;19922;-88
2022/04/12 00:59:45;;;;;;;;;;;11.90;41.30;;;;;;4965851;28;19980;-88
2022/04/12 01:02:11;;;;;;;;;;;11.90;41.20;;;;;;4956504;28;20290;-88
2022/04/12 01:04:37;;;;;;;;;;;11.90;41.20;;;;;;4958165;28;19922;-87
2022/04/12 01:07:02;;;;;;;;;;;11.80;41.20;;;;;;4960122;28;19972;-87
2022/04/12 01:09:28;;;;;;;;;;;11.80;41.20;;;;;;4956664;28;20279;-88
2022/04/12 01:11:54;;;;;;;;;;;11.80;41.40;;;;;;4958002;28;19918;-88
2022/04/12 01:14:20;;;;;;;;;;;11.80;41.40;;;;;;4972503;28;19918;-88
2022/04/12 01:16:46;;;;;;;;;;;11.80;41.60;;;;;;4965944;28;19918;-88
2022/04/12 01:19:11;;;;;;;;;;;11.80;41.80;;;;;;4960120;28;19933;-88
2022/04/12 01:22:00;;;;;;;;;;;11.80;41.80;;;;;;4956272;28;19946;-87
2022/04/12 01:24:26;;;;;;;;;;;11.80;41.70;;;;;;4956513;28;19974;-88
2022/04/12 01:26:52;;;;;;;;;;;11.90;41.70;;;;;;4953844;28;19957;-88
2022/04/12 01:29:17;;;;;;;;;;;11.90;41.70;;;;;;4957440;29;19922;-88
2022/04/12 01:31:43;;;;;;;;;;;12.00;41.70;;;;;;4961354;28;19981;-88
2022/04/12 01:34:08;;;;;;;;;;;12.00;41.80;;;;;;4964058;28;19922;-87
2022/04/12 01:36:34;;;;;;;;;;;12.10;41.80;;;;;;4956849;28;19914;-87
2022/04/12 01:38:59;;;;;;;;;;;12.10;41.80;;;;;;4967037;28;19922;-87
2022/04/12 01:41:25;;;;;;;;;;;12.20;41.70;;;;;;4955478;28;19990;-88
2022/04/12 01:43:50;;;;;;;;;;;12.20;41.70;;;;;;4951657;28;19922;-87
2022/04/12 01:46:16;;;;;;;;;;;12.30;41.60;;;;;;4950182;28;19926;-87
2022/04/12 01:48:41;;;;;;;;;;;12.40;41.40;;;;;;4956672;28;19926;-87
2022/04/12 01:51:07;;;;;;;;;;;12.40;41.30;;;;;;4968721;28;19960;-87
2022/04/12 01:53:32;;;;;;;;;;;12.40;41.20;;;;;;4972978;28;19924;-88
2022/04/12 01:55:58;;;;;;;;;;;12.50;41.20;;;;;;4970158;28;19918;-87
2022/04/12 01:58:23;;;;;;;;;;;12.50;41.10;;;;;;4953967;28;19925;-87
2022/04/12 02:00:48;;;;;;;;;;;12.60;41.10;;;;;;4947628;28;19918;-87
2022/04/12 02:03:14;;;;;;;;;;;12.60;40.90;;;;;;4963613;28;19914;-88
2022/04/12 02:05:40;;;;;;;;;;;12.60;40.90;;;;;;4957218;28;19922;-87
2022/04/12 02:08:05;;;;;;;;;;;12.70;40.80;;;;;;4957990;28;19923;-88
2022/04/12 02:10:31;;;;;;;;;;;12.70;40.70;;;;;;4944509;28;19922;-87
2022/04/12 02:12:56;;;;;;;;;;;12.70;40.60;;;;;;4955590;28;19962;-87
2022/04/12 02:15:22;;;;;;;;;;;12.70;40.50;;;;;;4966352;28;19957;-87
2022/04/12 02:17:48;;;;;;;;;;;12.80;40.40;;;;;;4961062;28;20060;-87
2022/04/12 02:20:13;;;;;;;;;;;12.80;40.40;;;;;;4947932;28;19922;-87
2022/04/12 02:22:39;;;;;;;;;;;12.80;40.30;;;;;;4949695;28;19918;-87
2022/04/12 02:25:04;;;;;;;;;;;12.80;40.20;;;;;;4971143;28;19925;-87
2022/04/12 02:27:30;;;;;;;;;;;12.80;40.20;;;;;;4948859;28;19925;-88
2022/04/12 02:29:55;;;;;;;;;;;12.90;40.10;;;;;;4948894;29;19965;-88
2022/04/12 02:32:21;;;;;;;;;;;12.80;40.10;;;;;;4952259;28;19966;-88
2022/04/12 02:34:46;;;;;;;;;;;12.90;40.00;;;;;;4950518;28;19926;-89
2022/04/12 02:37:12;;;;;;;;;;;12.90;40.00;;;;;;4968716;28;20424;-88
2022/04/12 02:39:37;;;;;;;;;;;12.90;40.00;;;;;;4946472;29;19919;-87
2022/04/12 02:42:03;;;;;;;;;;;12.90;39.90;;;;;;4952560;28;19918;-87
2022/04/12 02:44:28;;;;;;;;;;;12.90;39.90;;;;;;4953796;28;19941;-87
2022/04/12 02:46:54;;;;;;;;;;;12.90;39.80;;;;;;4956887;28;19922;-87
2022/04/12 02:49:19;;;;;;;;;;;13.00;39.80;;;;;;4974517;28;20359;-87
2022/04/12 02:51:48;;;;;;;;;;;13.00;39.80;;;;;;4956812;28;19914;-87
2022/04/12 02:54:14;;;;;;;;;;;13.00;39.70;;;;;;4957251;28;19976;-87
2022/04/12 02:56:39;;;;;;;;;;;13.00;39.60;;;;;;4958033;28;19914;-87
2022/04/12 02:59:05;;;;;;;;;;;13.00;39.60;;;;;;4978195;28;19921;-88
2022/04/12 03:01:30;;;;;;;;;;;13.10;39.60;;;;;;4961066;28;20390;-88
2022/04/12 03:03:56;;;;;;;;;;;13.10;39.40;;;;;;4976584;28;19918;-88
2022/04/12 03:06:22;;;;;;;;;;;13.00;39.40;;;;;;4960667;28;20270;-87
2022/04/12 03:08:47;;;;;;;;;;;13.10;39.30;;;;;;4976715;28;19969;-87
2022/04/12 03:11:13;;;;;;;;;;;13.10;39.30;;;;;;4977633;28;19973;-87
2022/04/12 03:13:38;;;;;;;;;;;13.00;39.30;;;;;;4975321;28;19914;-87
2022/04/12 03:16:04;;;;;;;;;;;13.00;39.20;;;;;;4960284;28;19921;-87
2022/04/12 03:18:29;;;;;;;;;;;12.90;39.30;;;;;;4977984;28;19942;-88
2022/04/12 03:20:55;;;;;;;;;;;12.80;39.40;;;;;;4944733;29;19914;-88
2022/04/12 03:23:20;;;;;;;;;;;12.80;39.50;;;;;;4952536;28;20386;-87
2022/04/12 03:25:46;;;;;;;;;;;12.80;39.50;;;;;;4979231;28;20386;-88
2022/04/12 03:28:11;;;;;;;;;;;12.70;39.50;;;;;;4969584;28;19926;-87
2022/04/12 03:30:37;;;;;;;;;;;12.70;39.60;;;;;;4956785;28;19949;-87
2022/04/12 03:33:02;;;;;;;;;;;12.70;39.60;;;;;;4964110;28;19918;-87
2022/04/12 03:35:28;;;;;;;;;;;12.60;39.60;;;;;;4965204;28;19914;-87
2022/04/12 03:37:53;;;;;;;;;;;12.60;39.70;;;;;;4964234;28;19934;-87
2022/04/12 03:40:21;;;;;;;;;;;12.50;39.80;;;;;;4962829;28;19910;-88
2022/04/12 03:42:47;;;;;;;;;;;12.50;39.80;;;;;;4961637;28;19929;-88
2022/04/12 03:45:12;;;;;;;;;;;12.50;39.90;;;;;;4948666;29;19911;-88
2022/04/12 03:47:38;;;;;;;;;;;12.50;39.90;;;;;;4958802;28;19933;-88
2022/04/12 03:50:04;;;;;;;;;;;12.40;40.00;;;;;;4972410;28;19921;-88
2022/04/12 03:52:29;;;;;;;;;;;12.40;40.00;;;;;;4955578;28;19918;-87
2022/04/12 03:54:55;;;;;;;;;;;12.40;40.10;;;;;;4968603;28;19926;-87
2022/04/12 03:57:20;;;;;;;;;;;12.30;40.20;;;;;;4971178;28;19914;-88
2022/04/12 03:59:46;;;;;;;;;;;12.30;40.20;;;;;;4948154;28;19919;-88
2022/04/12 04:02:11;;;;;;;;;;;12.30;40.30;;;;;;4964938;28;19922;-90
2022/04/12 04:04:37;;;;;;;;;;;12.30;40.30;;;;;;4972708;28;20267;-90
2022/04/12 04:07:02;;;;;;;;;;;12.30;40.40;;;;;;4956026;28;19919;-90
2022/04/12 04:09:28;;;;;;;;;;;12.30;40.40;;;;;;4970795;28;19918;-90
2022/04/12 04:11:55;;;;;;;;;;;12.20;40.50;;;;;;4951381;28;19914;-90
2022/04/12 04:14:22;;;;;;;;;;;12.20;40.50;;;;;;4954843;28;19925;-90
2022/04/12 04:16:47;;;;;;;;;;;12.10;40.70;;;;;;4976194;28;19901;-89
2022/04/12 04:19:13;;;;;;;;;;;12.10;40.80;;;;;;4967836;28;19928;-90
2022/04/12 04:21:39;;;;;;;;;;;12.10;40.80;;;;;;4960479;28;19914;-90
2022/04/12 04:24:04;;;;;;;;;;;12.10;40.80;;;;;;4965447;28;19964;-90
2022/04/12 04:26:30;;;;;;;;;;;12.10;40.90;;;;;;4967364;28;19915;-89
2022/04/12 04:28:55;;;;;;;;;;;12.10;40.90;;;;;;4951872;28;20375;-90
2022/04/12 04:31:21;;;;;;;;;;;12.00;40.90;;;;;;4969468;28;19911;-89
2022/04/12 04:33:47;;;;;;;;;;;12.00;41.00;;;;;;4973849;28;19922;-89
2022/04/12 04:36:12;;;;;;;;;;;12.00;41.10;;;;;;4967690;28;19922;-90
2022/04/12 04:38:38;;;;;;;;;;;12.00;41.10;;;;;;4971481;28;19997;-89
2022/04/12 04:41:03;;;;;;;;;;;11.90;41.10;;;;;;4953477;29;19921;-91
2022/04/12 04:43:29;;;;;;;;;;;11.90;41.10;;;;;;4958503;28;19918;-89
2022/04/12 04:45:54;;;;;;;;;;;11.90;41.20;;;;;;4953234;28;20282;-90
2022/04/12 04:48:20;;;;;;;;;;;11.90;41.20;;;;;;4973445;28;19941;-90
2022/04/12 04:50:45;;;;;;;;;;;11.90;41.30;;;;;;4953705;28;20330;-89
2022/04/12 04:53:11;;;;;;;;;;;11.90;41.40;;;;;;4986602;28;19924;-89
2022/04/12 04:55:37;;;;;;;;;;;11.90;41.40;;;;;;4986853;28;19941;-89
2022/04/12 04:58:03;;;;;;;;;;;11.90;41.40;;;;;;4983522;28;19917;-89
2022/04/12 05:00:34;;;;;;;;;;;12.00;41.40;;;;;;4969790;28;19914;-88
2022/04/12 05:03:00;;;;;;;;;;;12.00;41.40;;;;;;4970318;28;20013;-88
2022/04/12 05:05:26;;;;;;;;;;;12.10;41.50;;;;;;4988604;28;19945;-89
2022/04/12 05:07:52;;;;;;;;;;;12.10;41.50;;;;;;4968633;28;19970;-89
2022/04/12 05:10:25;;;;;;;;;;;12.20;41.60;;;;;;4982490;28;19914;-89
2022/04/12 05:12:51;;;;;;;;;;;12.30;41.60;;;;;;4970475;28;20294;-87
2022/04/12 05:15:17;;;;;;;;;;;12.40;41.60;;;;;;4969655;28;19922;-87
2022/04/12 05:17:50;;;;;;;;;;;12.60;41.60;;;;;;4991102;28;19937;-89
2022/04/12 05:20:16;;;;;;;;;;;12.70;41.50;;;;;;4965538;28;19914;-89
2022/04/12 05:22:41;;;;;;;;;;;13.00;41.30;;;;;;4969126;28;19936;-87
2022/04/12 05:25:07;;;;;;;;;;;13.10;41.10;;;;;;4985887;28;19914;-87
2022/04/12 05:27:33;;;;;;;;;;;13.20;40.80;;;;;;4991880;28;20438;-87
2022/04/12 05:30:03;;;;;;;;;;;13.30;40.40;;;;;;4990559;28;19969;-86
2022/04/12 05:32:28;;;;;;;;;;;13.40;40.20;;;;;;4987768;28;19914;-87
2022/04/12 05:34:54;;;;;;;;;;;13.40;40.00;;;;;;4970998;28;19921;-87
2022/04/12 05:37:20;;;;;;;;;;;13.50;40.00;;;;;;4971129;28;20297;-87
2022/04/12 05:39:45;;;;;;;;;;;13.60;39.80;;;;;;4984318;28;20298;-87
2022/04/12 05:42:11;;;;;;;;;;;13.70;39.80;;;;;;4988482;28;19921;-86
2022/04/12 05:44:36;;;;;;;;;;;13.70;39.80;;;;;;4967481;28;19921;-86
2022/04/12 05:47:03;;;;;;;;;;;13.80;39.50;;;;;;4984361;28;19918;-87
2022/04/12 05:49:29;;;;;;;;;;;13.90;39.50;;;;;;4972092;28;19931;-87
2022/04/12 05:51:55;;;;;;;;;;;14.10;39.40;;;;;;4987668;28;19914;-87
2022/04/12 05:54:21;;;;;;;;;;;14.20;39.00;;;;;;4968412;28;20574;-85
2022/04/12 05:56:47;;;;;;;;;;;14.40;39.00;;;;;;4986145;28;19918;-86
2022/04/12 05:59:12;;;;;;;;;;;14.60;38.90;;;;;;4986030;28;20392;-87
2022/04/12 06:01:38;;;;;;;;;;;14.80;38.80;;;;;;4987913;28;19929;-88
2022/04/12 06:04:04;;;;;;;;;;;15.10;38.70;;;;;;4988772;28;19921;-89
2022/04/12 06:06:30;;;;;;;;;;;15.40;38.20;;;;;;4972301;28;20393;-88
2022/04/12 06:08:55;;;;;;;;;;;15.60;37.70;;;;;;4981646;28;19922;-89
2022/04/12 06:11:22;;;;;;;;;;;15.80;37.30;;;;;;4986053;28;19988;-89
2022/04/12 06:13:47;;;;;;;;;;;16.00;36.70;;;;;;4981600;28;19986;-88
2022/04/12 06:16:13;;;;;;;;;;;16.20;36.60;;;;;;4970804;28;19948;-88
2022/04/12 06:18:38;;;;;;;;;;;16.30;36.10;;;;;;4969813;28;19984;-88
2022/04/12 06:21:04;;;;;;;;;;;16.40;36.00;;;;;;4981990;28;19929;-89
2022/04/12 06:23:29;;;;;;;;;;;16.50;35.70;;;;;;4982350;28;19918;-87
2022/04/12 06:25:54;;;;;;;;;;;16.60;35.50;;;;;;4970023;28;19963;-90
2022/04/12 06:28:20;;;;;;;;;;;16.80;35.80;;;;;;4983039;28;19922;-89
2022/04/12 06:30:47;;;;;;;;;;;17.10;35.50;;;;;;4964020;28;19921;-90
2022/04/12 06:33:13;;;;;;;;;;;17.30;35.00;;;;;;4988389;28;19917;-90
2022/04/12 06:35:38;;;;;;;;;;;17.60;35.00;;;;;;4976482;28;20051;-88
2022/04/12 06:38:04;;;;;;;;;;;17.90;34.90;;;;;;4986473;28;20044;-88
2022/04/12 06:40:29;;;;;;;;;;;18.20;34.90;;;;;;4984249;28;19978;-89
2022/04/12 06:42:55;;;;;;;;;;;18.70;35.00;;;;;;4966142;28;19921;-89
2022/04/12 06:45:21;;;;;;;;;;;19.20;34.50;;;;;;4988849;28;19929;-88
2022/04/12 06:47:53;;;;;;;;;;;19.70;34.20;;;;;;4970828;28;20389;-88
2022/04/12 06:50:19;;;;;;;;;;;20.40;33.80;;;;;;4971120;28;19921;-88
2022/04/12 06:52:44;;;;;;;;;;;20.90;32.40;;;;;;4989828;28;20361;-89
2022/04/12 06:55:10;;;;;;;;;;;21.50;32.30;;;;;;4964022;28;19918;-88
2022/04/12 06:57:35;;;;;;;;;;;22.10;31.20;;;;;;4983683;28;19953;-88
2022/04/12 07:00:03;;;;;;;;;;;22.70;30.50;;;;;;4968286;28;19925;-88
2022/04/12 07:02:28;;;;;;;;;;;23.20;29.90;;;;;;4985403;28;19914;-91
2022/04/12 07:04:54;;;;;;;;;;;23.70;29.10;;;;;;4969093;28;19933;-89
2022/04/12 07:07:19;;;;;;;;;;;23.80;27.00;;;;;;4978686;28;19925;-89
2022/04/12 07:09:45;;;;;;;;;;;23.90;26.70;;;;;;4984274;28;20041;-89
2022/04/12 07:12:10;;;;;;;;;;;23.90;26.70;;;;;;4981607;28;20276;-90
2022/04/12 07:14:39;;;;;;;;;;;23.90;26.50;;;;;;4971190;28;19968;-93
2022/04/12 07:17:05;;;;;;;;;;;24.00;26.10;;;;;;4984507;28;19918;-94
2022/04/12 07:19:32;;;;;;;;;;;23.80;26.20;;;;;;4966988;28;20385;-95
2022/04/12 07:22:00;;;;;;;;;;;23.80;26.50;;;;;;4976011;28;19918;-91
2022/04/12 07:24:26;;;;;;;;;;;23.80;26.20;;;;;;4977098;28;19920;-91
2022/04/12 07:26:51;;;;;;;;;;;23.80;25.70;;;;;;4968724;28;19997;-92
2022/04/12 07:29:38;;;;;;;;;;;23.80;26.00;;;;;;4989682;28;19929;-93
2022/04/12 07:32:03;;;;;;;;;;;23.80;25.70;;;;;;4978030;28;20369;-92
2022/04/12 07:34:28;;;;;;;;;;;23.80;25.50;;;;;;4960572;28;19917;-91
2022/04/12 07:36:54;;;;;;;;;;;23.80;25.80;;;;;;4990646;28;19996;-91
2022/04/12 07:39:19;;;;;;;;;;;24.00;26.20;;;;;;4967711;28;20394;-91
2022/04/12 07:41:53;;;;;;;;;;;24.30;26.20;;;;;;4983433;28;19922;-91
2022/04/12 07:44:20;;;;;;;;;;;24.70;25.60;;;;;;4987202;28;19921;-91
2022/04/12 07:46:45;;;;;;;;;;;24.90;25.00;;;;;;4973998;28;19926;-92
2022/04/12 07:49:11;;;;;;;;;;;25.20;24.90;;;;;;4977750;28;19933;-91
2022/04/12 07:51:37;;;;;;;;;;;25.30;24.70;;;;;;4969258;28;20085;-91
2022/04/12 07:54:03;;;;;;;;;;;25.40;24.20;;;;;;4973308;28;19914;-91
2022/04/12 07:56:30;;;;;;;;;;;25.50;24.10;;;;;;4957070;28;19939;-92
2022/04/12 07:58:55;;;;;;;;;;;25.60;24.20;;;;;;4964060;28;20024;-91
2022/04/12 08:01:21;;;;;;;;;;;25.80;24.00;;;;;;4973341;28;19969;-92
2022/04/12 08:03:47;;;;;;;;;;;26.00;23.70;;;;;;4968217;28;19925;-92
2022/04/12 08:06:12;;;;;;;;;;;26.20;23.80;;;;;;4974938;28;20009;-92
2022/04/12 08:08:38;;;;;;;;;;;26.30;23.60;;;;;;4975972;28;19997;-89
2022/04/12 08:11:04;;;;;;;;;;;26.40;23.20;;;;;;4974646;28;19921;-93
2022/04/12 08:13:30;;;;;;;;;;;26.40;23.40;;;;;;4972807;28;20554;-91
2022/04/12 08:15:56;;;;;;;;;;;26.50;23.60;;;;;;4990254;28;19918;-92
2022/04/12 08:18:21;;;;;;;;;;;26.50;23.20;;;;;;4986937;28;19901;-92
2022/04/12 08:20:49;;;;;;;;;;;26.60;23.40;;;;;;4976100;28;19922;-92
2022/04/12 08:23:15;;;;;;;;;;;26.80;23.10;;;;;;4974609;28;20681;-93
2022/04/12 08:25:41;;;;;;;;;;;27.10;23.30;;;;;;4982969;28;19922;-92
2022/04/12 08:28:06;;;;;;;;;;;27.50;22.70;;;;;;4973612;28;19928;-91
2022/04/12 08:30:32;;;;;;;;;;;27.80;22.30;;;;;;4970689;28;19959;-92
2022/04/12 08:32:57;;;;;;;;;;;28.00;21.90;;;;;;4992708;28;19959;-92
2022/04/12 08:35:22;;;;;;;;;;;28.10;21.90;;;;;;4982671;28;19929;-92
2022/04/12 08:37:48;;;;;;;;;;;28.40;22.10;;;;;;4975238;28;20377;-91
2022/04/12 08:40:18;;;;;;;;;;;28.70;22.00;;;;;;4972663;28;19926;-91
2022/04/12 08:42:44;;;;;;;;;;;29.00;21.50;;;;;;4990336;28;20003;-92
2022/04/12 08:45:10;;;;;;;;;;;29.20;21.00;;;;;;4983698;28;19969;-91
2022/04/12 08:47:39;;;;;;;;;;;29.20;20.70;;;;;;4971171;28;19918;-92
2022/04/12 08:50:05;;;;;;;;;;;29.50;20.60;;;;;;4986946;28;19937;-91
2022/04/12 08:52:30;;;;;;;;;;;29.50;20.60;;;;;;4988722;28;19918;-90
2022/04/12 08:54:56;;;;;;;;;;;29.60;20.50;;;;;;4974498;28;20338;-90
2022/04/12 08:57:21;;;;;;;;;;;29.60;20.20;;;;;;4974128;28;19929;-91
2022/04/12 08:59:48;;;;;;;;;;;29.50;20.20;;;;;;4975424;28;19953;-91
2022/04/12 09:02:13;;;;;;;;;;;29.50;20.50;;;;;;4968535;28;19916;-90
2022/04/12 09:04:39;;;;;;;;;;;29.60;20.20;;;;;;4975353;28;20294;-90
2022/04/12 09:07:08;;;;;;;;;;;29.70;20.30;;;;;;4980984;28;19922;-91
2022/04/12 09:09:36;;;;;;;;;;;29.50;20.20;;;;;;4980390;28;19940;-90
2022/04/12 09:12:06;;;;;;;;;;;29.50;20.40;;;;;;4979881;28;19945;-91
2022/04/12 09:14:39;;;;;;;;;;;29.60;20.60;;;;;;4995071;28;19899;-91
2022/04/12 09:17:09;;;;;;;;;;;29.80;21.00;;;;;;4970605;28;20449;-90
2022/04/12 09:19:55;;;;;;;;;;;30.00;20.90;;;;;;4974425;28;19920;-91
2022/04/12 09:22:21;;;;;;;;;;;30.20;20.50;;;;;;4999316;28;19898;-91
2022/04/12 09:24:48;;;;;;;;;;;30.60;20.10;;;;;;4993990;28;19922;-91
2022/04/12 09:27:15;;;;;;;;;;;30.80;19.50;;;;;;4980049;28;19926;-91
2022/04/12 09:29:48;;;;;;;;;;;30.80;19.00;;;;;;4999514;28;19910;-91
2022/04/12 09:32:15;;;;;;;;;;;30.80;19.10;;;;;;4971118;28;19929;-92
2022/04/12 09:34:51;;;;;;;;;;;30.80;19.20;;;;;;4975975;28;19922;-91
2022/04/12 09:37:21;;;;;;;;;;;30.70;19.40;;;;;;4984910;28;19956;-91
2022/04/12 09:39:53;;;;;;;;;;;30.80;19.60;;;;;;4990767;28;19914;-91
2022/04/12 09:42:21;;;;;;;;;;;30.90;19.70;;;;;;4981183;28;19977;-90
2022/04/12 09:45:01;;;;;;;;;;;31.00;19.50;;;;;;4994221;28;20374;-91
2022/04/12 09:47:26;;;;;;;;;;;31.00;19.50;;;;;;4964783;28;20555;-90
2022/04/12 09:49:54;;;;;;;;;;;31.10;19.50;;;;;;4967700;28;19945;-92
2022/04/12 09:52:29;;;;;;;;;;;31.20;19.90;;;;;;4976628;28;19921;-91
2022/04/12 09:54:55;;;;;;;;;;;31.30;19.50;;;;;;4962988;28;19968;-91
2022/04/12 09:57:22;;;;;;;;;;;31.50;19.50;;;;;;4966946;28;19929;-91
2022/04/12 09:59:48;;;;;;;;;;;31.50;19.10;;;;;;4969723;28;20332;-91
2022/04/12 10:02:14;;;;;;;;;;;31.50;18.60;;;;;;4957979;28;19976;-92
2022/04/12 10:04:59;;;;;;;;;;;31.50;18.70;;;;;;4972339;28;19918;-93
2022/04/12 10:07:25;;;;;;;;;;;31.80;18.80;;;;;;4989780;28;19937;-92
2022/04/12 10:09:51;;;;;;;;;;;32.00;18.90;;;;;;4984936;28;19936;-91
2022/04/12 10:12:17;;;;;;;;;;;32.10;18.30;;;;;;4967250;28;19968;-92
2022/04/12 10:14:43;;;;;;;;;;;32.20;18.40;;;;;;4968535;28;19920;-91
2022/04/12 10:17:13;;;;;;;;;;;32.40;18.60;;;;;;4963465;28;19963;-91
2022/04/12 10:19:42;;;;;;;;;;;32.60;18.70;;;;;;4984361;28;20358;-91
2022/04/12 10:22:07;;;;;;;;;;;32.80;18.10;;;;;;4961347;28;19925;-91
2022/04/12 10:24:34;;;;;;;;;;;32.80;17.80;;;;;;4977503;28;19914;-91
2022/04/12 10:27:00;;;;;;;;;;;32.60;17.80;;;;;;4966062;28;19987;-91
2022/04/12 10:29:25;;;;;;;;;;;32.60;17.80;;;;;;4973865;28;19918;-91
2022/04/12 10:31:58;;;;;;;;;;;32.70;17.60;;;;;;4971703;28;20001;-92
2022/04/12 10:34:24;;;;;;;;;;;32.70;17.80;;;;;;4989520;28;19969;-90
2022/04/12 10:36:55;;;;;;;;;;;32.80;17.80;;;;;;4988590;28;19949;-91
2022/04/12 10:39:21;;;;;;;;;;;32.70;17.80;;;;;;4985207;28;19993;-91
2022/04/12 10:41:49;;;;;;;;;;;32.60;17.80;;;;;;4988492;28;19926;-90
2022/04/12 10:44:21;;;;;;;;;;;32.70;18.00;;;;;;4972377;28;19945;-91
2022/04/12 10:46:48;;;;;;;;;;;32.80;18.00;;;;;;4975449;28;19936;-91
2022/04/12 10:49:16;;;;;;;;;;;32.70;18.30;;;;;;4976663;28;19918;-91
2022/04/12 10:51:41;;;;;;;;;;;32.80;18.10;;;;;;4986000;28;19914;-92
2022/04/12 10:54:25;;;;;;;;;;;32.70;18.20;;;;;;4977761;28;19945;-91
2022/04/12 10:57:09;;;;;;;;;;;32.80;18.20;;;;;;4967964;28;20009;-92
2022/04/12 10:59:39;;;;;;;;;;;32.80;18.20;;;;;;4990062;28;19914;-91
2022/04/12 11:02:11;;;;;;;;;;;32.90;18.30;;;;;;4992639;28;19922;-92
2022/04/12 11:04:36;;;;;;;;;;;32.80;18.10;;;;;;4968761;28;19914;-92
2022/04/12 11:07:06;;;;;;;;;;;32.60;18.10;;;;;;4965076;28;19986;-91
2022/04/12 11:09:31;;;;;;;;;;;32.30;18.10;;;;;;4981363;28;19918;-91
2022/04/12 11:12:01;;;;;;;;;;;32.20;18.60;;;;;;4971913;28;19922;-90
2022/04/12 11:14:36;;;;;;;;;;;32.30;18.70;;;;;;4967007;28;19914;-91
2022/04/12 11:17:07;;;;;;;;;;;32.40;18.60;;;;;;4983909;28;19969;-91
2022/04/12 11:19:42;;;;;;;;;;;32.30;18.30;;;;;;4975674;28;19921;-93
2022/04/12 11:22:15;;;;;;;;;;;32.20;18.60;;;;;;4965935;28;19914;-93
2022/04/12 11:24:40;;;;;;;;;;;31.90;18.60;;;;;;4969222;28;19926;-93
2022/04/12 11:27:13;;;;;;;;;;;31.90;18.70;;;;;;4962902;28;19922;-91
2022/04/12 11:29:41;;;;;;;;;;;32.10;18.60;;;;;;4985617;28;19926;-90
2022/04/12 11:32:15;;;;;;;;;;;32.20;18.70;;;;;;4960219;28;20282;-92
2022/04/12 11:34:43;;;;;;;;;;;32.30;18.60;;;;;;4979974;28;19933;-92
2022/04/12 11:37:13;;;;;;;;;;;32.30;18.40;;;;;;4961801;28;19952;-91
2022/04/12 11:39:42;;;;;;;;;;;32.40;18.50;;;;;;4968984;28;19944;-92
2022/04/12 11:42:09;;;;;;;;;;;32.50;18.70;;;;;;4967979;28;19918;-93
2022/04/12 11:44:34;;;;;;;;;;;32.60;18.30;;;;;;4960473;28;19925;-92
2022/04/12 11:47:02;;;;;;;;;;;32.70;18.00;;;;;;4992123;28;19941;-92
2022/04/12 11:49:33;;;;;;;;;;;32.80;18.30;;;;;;4972712;28;19966;-92
2022/04/12 11:52:01;;;;;;;;;;;33.00;18.10;;;;;;4979392;28;19920;-92
2022/04/12 11:54:27;;;;;;;;;;;33.00;17.90;;;;;;4976588;28;20381;-92
2022/04/12 11:56:57;;;;;;;;;;;32.90;18.00;;;;;;4968917;28;19914;-92
2022/04/12 11:59:23;;;;;;;;;;;32.80;17.70;;;;;;4971646;28;19925;-91
2022/04/12 12:01:48;;;;;;;;;;;32.70;17.80;;;;;;4980462;28;19914;-92
2022/04/12 12:04:15;;;;;;;;;;;32.70;18.20;;;;;;4969262;28;19917;-92
2022/04/12 12:07:04;;;;;;;;;;;32.80;18.40;;;;;;4992642;28;19990;-95
2022/04/12 12:09:30;;;;;;;;;;;32.90;18.30;;;;;;4997650;28;19925;-92
2022/04/12 12:11:56;;;;;;;;;;;32.90;17.60;;;;;;4998575;28;19989;-92
2022/04/12 12:14:22;;;;;;;;;;;33.00;17.70;;;;;;4992680;28;19922;-92
2022/04/12 12:17:01;;;;;;;;;;;33.30;17.40;;;;;;4967408;28;19913;-91
2022/04/12 12:19:27;;;;;;;;;;;33.40;17.10;;;;;;4967640;28;19978;-91
2022/04/12 12:21:53;;;;;;;;;;;33.50;16.80;;;;;;4981595;28;19921;-91
2022/04/12 12:24:18;;;;;;;;;;;33.50;16.80;;;;;;4999744;28;19937;-92
2022/04/12 12:26:44;;;;;;;;;;;33.70;16.80;;;;;;4980393;28;19918;-92
2022/04/12 12:29:11;;;;;;;;;;;33.80;16.90;;;;;;4977078;28;19918;-91
2022/04/12 12:31:43;;;;;;;;;;;33.80;16.60;;;;;;4981583;28;20263;-91
2022/04/12 12:34:09;;;;;;;;;;;33.90;16.90;;;;;;4976864;28;20357;-92
2022/04/12 12:36:34;;;;;;;;;;;34.00;16.60;;;;;;4989394;28;19941;-91
2022/04/12 12:39:05;;;;;;;;;;;34.00;16.40;;;;;;4974173;28;19929;-91
2022/04/12 12:41:31;;;;;;;;;;;33.90;16.50;;;;;;4998621;28;20044;-91
2022/04/12 12:43:58;;;;;;;;;;;33.80;16.50;;;;;;4993385;28;19941;-91
2022/04/12 12:46:24;;;;;;;;;;;33.60;16.70;;;;;;4971167;28;20263;-91
2022/04/12 12:49:04;;;;;;;;;;;33.70;16.70;;;;;;4979473;28;19928;-91
2022/04/12 12:51:30;;;;;;;;;;;33.60;16.40;;;;;;4980943;28;20382;-91
2022/04/12 12:54:02;;;;;;;;;;;33.30;16.50;;;;;;4980929;28;19949;-90
2022/04/12 12:56:31;;;;;;;;;;;33.20;17.00;;;;;;4986403;28;19918;-91
2022/04/12 12:59:13;;;;;;;;;;;33.30;17.20;;;;;;4979940;28;19905;-92
2022/04/12 13:01:42;;;;;;;;;;;33.30;16.80;;;;;;4990264;28;19928;-92
2022/04/12 13:04:31;;;;;;;;;;;33.20;16.90;;;;;;4972250;28;20359;-89
2022/04/12 13:07:16;;;;;;;;;;;33.20;17.00;;;;;;4965836;28;19930;-92
2022/04/12 13:09:48;;;;;;;;;;;33.10;17.10;;;;;;4977414;28;19918;-91
2022/04/12 13:12:14;;;;;;;;;;;33.00;17.10;;;;;;4977564;28;20393;-91
2022/04/12 13:14:44;;;;;;;;;;;32.70;17.30;;;;;;4972526;28;19903;-92
2022/04/12 13:17:10;;;;;;;;;;;32.70;17.30;;;;;;4970012;28;19977;-91
2022/04/12 13:19:35;;;;;;;;;;;32.60;17.50;;;;;;4994118;28;19927;-92
2022/04/12 13:22:01;;;;;;;;;;;32.60;17.60;;;;;;4979712;28;19922;-92
2022/04/12 13:24:27;;;;;;;;;;;32.80;17.80;;;;;;4983572;28;19918;-91
2022/04/12 13:26:54;;;;;;;;;;;32.70;17.60;;;;;;4993106;28;19922;-90
2022/04/12 13:29:20;;;;;;;;;;;32.40;17.60;;;;;;4983360;28;20393;-90
2022/04/12 13:31:46;;;;;;;;;;;32.30;17.70;;;;;;4967924;28;19922;-90
2022/04/12 13:34:11;;;;;;;;;;;32.10;17.90;;;;;;4978985;28;19973;-91
2022/04/12 13:36:37;;;;;;;;;;;31.70;17.80;;;;;;4979228;28;19922;-91
2022/04/12 13:39:03;;;;;;;;;;;31.40;18.20;;;;;;4970053;28;19918;-90
2022/04/12 13:41:30;;;;;;;;;;;31.30;18.50;;;;;;4966363;28;19914;-90
2022/04/12 13:43:56;;;;;;;;;;;31.20;18.70;;;;;;4967097;28;20426;-91
2022/04/12 13:46:21;;;;;;;;;;;31.10;19.10;;;;;;4981457;28;19921;-91
2022/04/12 13:48:47;;;;;;;;;;;30.80;19.10;;;;;;4973532;28;19930;-91
2022/04/12 13:51:13;;;;;;;;;;;30.60;19.20;;;;;;4979687;28;19918;-91
2022/04/12 13:53:38;;;;;;;;;;;30.30;19.60;;;;;;4964436;28;19981;-92
2022/04/12 13:56:04;;;;;;;;;;;30.30;19.80;;;;;;4977097;28;19925;-92
2022/04/12 13:58:30;;;;;;;;;;;30.10;20.00;;;;;;4963185;28;19903;-89
2022/04/12 14:00:56;;;;;;;;;;;29.80;19.80;;;;;;4970070;28;19914;-91
2022/04/12 14:03:22;;;;;;;;;;;29.60;19.90;;;;;;4974841;28;19923;-90
2022/04/12 14:05:50;;;;;;;;;;;29.40;20.20;;;;;;4960547;28;19926;-90
2022/04/12 14:08:18;;;;;;;;;;;29.30;20.60;;;;;;4965500;28;20337;-91
2022/04/12 14:10:44;;;;;;;;;;;29.10;20.90;;;;;;4966963;28;19922;-91
2022/04/12 14:13:10;;;;;;;;;;;28.90;20.90;;;;;;4968247;28;19918;-92
2022/04/12 14:15:35;;;;;;;;;;;28.80;20.90;;;;;;4965955;28;19918;-91
2022/04/12 14:18:03;;;;;;;;;;;28.70;21.10;;;;;;4960634;28;19940;-92